createdAt,value
2017-08-19T00:00:37.501Z,28.16
2017-08-19T00:01:50.073Z,28.16
2017-08-19T00:03:02.674Z,28.26
2017-08-19T00:04:14.638Z,28.06
2017-08-19T00:05:27.149Z,28.16
2017-08-19T00:06:39.506Z,28.15
2017-08-19T00:07:52.078Z,28.06
2017-08-19T00:09:04.643Z,28.05
2017-08-19T00:10:16.909Z,27.97
2017-08-19T00:11:28.886Z,28.06
2017-08-19T00:12:41.463Z,28.26
2017-08-19T00:13:53.483Z,28.34
2017-08-19T00:15:06.099Z,28.24
2017-08-19T00:16:18.085Z,28.15
2017-08-19T00:17:30.364Z,28.05
2017-08-19T00:18:42.608Z,28.15
2017-08-19T00:19:54.870Z,27.86
2017-08-19T00:21:07.478Z,27.95
2017-08-19T00:22:19.774Z,28.15
2017-08-19T00:23:32.070Z,28.05
2017-08-19T00:24:44.898Z,28.15
2017-08-19T00:25:57.151Z,28.15
2017-08-19T00:27:08.805Z,28.05
2017-08-19T00:28:21.399Z,27.86
2017-08-19T00:29:33.676Z,27.95
2017-08-19T00:30:45.966Z,28.05
2017-08-19T00:31:58.197Z,27.95
2017-08-19T00:33:10.790Z,28.24
2017-08-19T00:34:23.031Z,27.76
2017-08-19T00:35:35.328Z,27.95
2017-08-19T00:36:47.945Z,27.86
2017-08-19T00:38:00.544Z,28.05
2017-08-19T00:39:12.804Z,27.86
2017-08-19T00:40:25.419Z,27.95
2017-08-19T00:41:37.433Z,28.15
2017-08-19T00:42:50.027Z,27.95
2017-08-19T00:44:02.586Z,27.86
2017-08-19T00:45:15.149Z,27.95
2017-08-19T00:46:27.747Z,27.95
2017-08-19T00:47:40.129Z,27.95
2017-08-19T00:48:52.737Z,27.95
2017-08-19T00:50:05.339Z,28.15
2017-08-19T00:51:17.945Z,27.95
2017-08-19T00:52:30.491Z,28.05
2017-08-19T00:53:42.551Z,28.05
2017-08-19T00:54:55.131Z,28.05
2017-08-19T00:56:07.778Z,28.05
2017-08-19T00:57:20.406Z,27.95
2017-08-19T00:58:33.026Z,27.95
2017-08-19T00:59:45.364Z,27.95
2017-08-19T01:00:57.650Z,27.86
2017-08-19T01:02:10.246Z,27.76
2017-08-19T01:03:22.549Z,27.95
2017-08-19T01:04:35.126Z,27.86
2017-08-19T01:05:47.739Z,27.67
2017-08-19T01:07:00.296Z,27.86
2017-08-19T01:08:12.940Z,27.76
2017-08-19T01:09:25.486Z,27.48
2017-08-19T01:10:37.751Z,27.38
2017-08-19T01:11:50.300Z,27.38
2017-08-19T01:13:02.868Z,27.58
2017-08-19T01:14:14.908Z,27.38
2017-08-19T01:15:27.583Z,27.58
2017-08-19T01:16:40.205Z,27.48
2017-08-19T01:17:52.845Z,27.48
2017-08-19T01:19:05.419Z,27.48
2017-08-19T01:20:17.992Z,27.38
2017-08-19T01:21:30.520Z,27.28
2017-08-19T01:22:42.871Z,27.28
2017-08-19T01:23:55.466Z,27.19
2017-08-19T01:25:07.717Z,27.38
2017-08-19T01:26:19.657Z,27.38
2017-08-19T01:27:31.961Z,27.48
2017-08-19T01:28:44.483Z,27.48
2017-08-19T01:29:57.270Z,27.19
2017-08-19T01:31:09.841Z,27
2017-08-19T01:32:22.111Z,27.09
2017-08-19T01:33:34.726Z,27
2017-08-19T01:34:47.360Z,27.09
2017-08-19T01:35:59.942Z,27.3
2017-08-19T01:37:12.250Z,27.01
2017-08-19T01:38:24.521Z,27.11
2017-08-19T01:39:37.085Z,26.92
2017-08-19T01:40:49.581Z,27.01
2017-08-19T01:42:02.151Z,26.92
2017-08-19T01:43:14.121Z,26.92
2017-08-19T01:44:26.366Z,26.92
2017-08-19T01:45:38.288Z,26.92
2017-08-19T01:46:50.508Z,26.9
2017-08-19T01:48:03.148Z,27.01
2017-08-19T01:49:15.433Z,26.92
2017-08-19T01:50:27.784Z,26.9
2017-08-19T01:51:40.371Z,27
2017-08-19T01:52:52.587Z,27.19
2017-08-19T01:54:04.808Z,27.28
2017-08-19T01:55:17.371Z,27.09
2017-08-19T01:56:29.704Z,27.28
2017-08-19T01:57:42.344Z,27.19
2017-08-19T01:58:54.621Z,27.19
2017-08-19T02:00:07.248Z,27.48
2017-08-19T02:01:19.788Z,27.28
2017-08-19T02:02:32.592Z,27.48
2017-08-19T02:03:44.898Z,27.67
2017-08-19T02:04:57.199Z,27.67
2017-08-19T02:06:09.872Z,27.38
2017-08-19T02:07:22.125Z,27.58
2017-08-19T02:08:34.355Z,27.86
2017-08-19T02:09:46.368Z,27.95
2017-08-19T02:10:58.379Z,28.15
2017-08-19T02:12:10.653Z,28.15
2017-08-19T02:13:23.205Z,28.23
2017-08-19T02:14:35.446Z,28.44
2017-08-19T02:15:47.715Z,28.44
2017-08-19T02:16:59.403Z,28.91
2017-08-19T02:18:11.961Z,29.11
2017-08-19T02:19:24.585Z,28.99
2017-08-19T02:20:36.848Z,29.38
2017-08-19T02:21:49.122Z,29.28
2017-08-19T02:23:01.707Z,29.28
2017-08-19T02:24:13.673Z,29.57
2017-08-19T02:25:26.275Z,29.47
2017-08-19T02:26:38.558Z,29.57
2017-08-19T02:27:51.192Z,29.47
2017-08-19T02:29:03.512Z,29.47
2017-08-19T02:30:16.083Z,29.66
2017-08-19T02:31:28.447Z,29.76
2017-08-19T02:32:40.413Z,29.66
2017-08-19T02:33:52.977Z,29.57
2017-08-19T02:35:05.018Z,30.05
2017-08-19T02:36:17.292Z,30.52
2017-08-19T02:37:29.919Z,30.62
2017-08-19T02:38:42.504Z,30.81
2017-08-19T02:39:55.136Z,30.62
2017-08-19T02:41:07.663Z,30.72
2017-08-19T02:42:19.918Z,31.2
2017-08-19T02:43:32.239Z,31.48
2017-08-19T02:44:44.864Z,31.48
2017-08-19T02:45:57.434Z,31.67
2017-08-19T02:47:09.710Z,31.58
2017-08-19T02:48:22.297Z,31.77
2017-08-19T02:49:34.640Z,31.77
2017-08-19T02:50:47.243Z,32.06
2017-08-19T02:51:59.898Z,32.15
2017-08-19T02:53:12.479Z,31.85
2017-08-19T02:54:25.083Z,31.95
2017-08-19T02:55:37.397Z,32.23
2017-08-19T02:56:49.981Z,32.04
2017-08-19T02:58:02.258Z,32.14
2017-08-19T02:59:14.538Z,32.04
2017-08-19T03:00:27.117Z,31.95
2017-08-19T03:01:38.799Z,32.14
2017-08-19T03:02:51.064Z,31.95
2017-08-19T03:04:03.678Z,32.04
2017-08-19T03:05:15.981Z,32.14
2017-08-19T03:06:28.603Z,31.95
2017-08-19T03:07:40.824Z,32.04
2017-08-19T03:08:53.397Z,31.95
2017-08-19T03:10:06.003Z,31.95
2017-08-19T03:11:18.294Z,31.66
2017-08-19T03:12:30.962Z,31.95
2017-08-19T03:13:42.920Z,31.66
2017-08-19T03:14:54.823Z,31.56
2017-08-19T03:16:07.111Z,31.76
2017-08-19T03:17:19.667Z,31.37
2017-08-19T03:18:31.961Z,31.18
2017-08-19T03:19:43.942Z,31.47
2017-08-19T03:20:55.902Z,31.56
2017-08-19T03:22:08.464Z,30.8
2017-08-19T03:23:20.460Z,30.99
2017-08-19T03:24:33.120Z,30.99
2017-08-19T03:25:45.426Z,30.9
2017-08-19T03:26:57.981Z,31.18
2017-08-19T03:28:10.281Z,30.7
2017-08-19T03:29:22.849Z,31.09
2017-08-19T03:30:35.423Z,30.9
2017-08-19T03:31:47.962Z,30.9
2017-08-19T03:32:59.967Z,30.99
2017-08-19T03:34:12.555Z,30.7
2017-08-19T03:35:25.102Z,30.61
2017-08-19T03:36:37.712Z,30.8
2017-08-19T03:37:49.957Z,30.61
2017-08-19T03:39:01.942Z,30.7
2017-08-19T03:40:14.199Z,30.41
2017-08-19T03:41:26.741Z,30.13
2017-08-19T03:42:39.331Z,30.22
2017-08-19T03:43:51.638Z,30.41
2017-08-19T03:45:03.916Z,30.13
2017-08-19T03:46:16.184Z,30.22
2017-08-19T03:47:28.729Z,29.94
2017-08-19T03:48:41.033Z,29.94
2017-08-19T03:49:53.608Z,29.94
2017-08-19T03:51:05.834Z,30.15
2017-08-19T03:52:18.438Z,30.03
2017-08-19T03:53:30.990Z,30.05
2017-08-19T03:54:43.229Z,29.86
2017-08-19T03:55:55.804Z,30.03
2017-08-19T03:57:07.837Z,30.15
2017-08-19T03:58:20.158Z,30.05
2017-08-19T03:59:32.104Z,30.03
2017-08-19T04:00:44.658Z,30.15
2017-08-19T04:01:57.203Z,30.22
2017-08-19T04:03:09.798Z,29.86
2017-08-19T04:04:22.455Z,29.84
2017-08-19T04:05:34.476Z,29.74
2017-08-19T04:06:46.838Z,30.24
2017-08-19T04:07:59.393Z,30.22
2017-08-19T04:09:11.980Z,29.94
2017-08-19T04:10:24.627Z,30.13
2017-08-19T04:11:37.175Z,30.61
2017-08-19T04:12:49.792Z,30.24
2017-08-19T04:14:02.392Z,30.22
2017-08-19T04:15:15.028Z,30.41
2017-08-19T04:16:27.611Z,30.32
2017-08-19T04:17:39.339Z,30.22
2017-08-19T04:18:51.911Z,30.22
2017-08-19T04:20:04.449Z,30.51
2017-08-19T04:21:17.061Z,30.7
2017-08-19T04:22:29.321Z,30.61
2017-08-19T04:23:41.560Z,30.81
2017-08-19T04:24:54.160Z,30.8
2017-08-19T04:26:06.418Z,30.9
2017-08-19T04:27:19.039Z,30.7
2017-08-19T04:28:31.625Z,30.99
2017-08-19T04:29:43.852Z,31.09
2017-08-19T04:30:56.448Z,31.09
2017-08-19T04:32:08.986Z,30.99
2017-08-19T04:33:21.518Z,30.9
2017-08-19T04:34:34.098Z,30.81
2017-08-19T04:35:46.649Z,30.9
2017-08-19T04:36:58.918Z,31.2
2017-08-19T04:38:11.558Z,31.27
2017-08-19T04:39:24.154Z,31.18
2017-08-19T04:40:36.762Z,31.37
2017-08-19T04:41:49.369Z,31.18
2017-08-19T04:43:01.915Z,31.37
2017-08-19T04:44:14.222Z,31.47
2017-08-19T04:45:26.189Z,31.37
2017-08-19T04:46:38.758Z,31.37
2017-08-19T04:47:51.054Z,31.58
2017-08-19T04:49:03.675Z,31.76
2017-08-19T04:50:15.953Z,31.95
2017-08-19T04:51:28.226Z,32.23
2017-08-19T04:52:40.838Z,32.52
2017-08-19T04:53:53.444Z,32.33
2017-08-19T04:55:05.820Z,32.62
2017-08-19T04:56:18.377Z,32.62
2017-08-19T04:57:30.926Z,32.71
2017-08-19T04:58:43.519Z,32.62
2017-08-19T04:59:55.821Z,32.62
2017-08-19T05:01:08.080Z,32.42
2017-08-19T05:02:20.363Z,32.42
2017-08-19T05:03:32.991Z,32.52
2017-08-19T05:04:45.629Z,32.42
2017-08-19T05:05:58.207Z,32.33
2017-08-19T05:07:10.801Z,32.52
2017-08-19T05:08:23.121Z,32.34
2017-08-19T05:09:35.350Z,31.95
2017-08-19T05:10:47.635Z,31.96
2017-08-19T05:12:00.252Z,32.15
2017-08-19T05:13:12.556Z,32.06
2017-08-19T05:14:24.829Z,32.15
2017-08-19T05:15:36.838Z,32.06
2017-08-19T05:16:49.074Z,31.58
2017-08-19T05:18:01.605Z,31.38
2017-08-19T05:19:14.215Z,31.29
2017-08-19T05:20:26.843Z,31.77
2017-08-19T05:21:39.096Z,31.29
2017-08-19T05:22:51.656Z,31.2
2017-08-19T05:24:04.016Z,30.91
2017-08-19T05:25:16.014Z,31.29
2017-08-19T05:26:28.320Z,31.2
2017-08-19T05:27:40.325Z,31.96
2017-08-19T05:28:52.880Z,32.82
2017-08-19T05:30:05.218Z,33.3
2017-08-19T05:31:17.812Z,33.2
2017-08-19T05:32:30.104Z,33.69
2017-08-19T05:33:42.051Z,33.78
2017-08-19T05:34:54.345Z,34.26
2017-08-19T05:36:06.973Z,34.26
2017-08-19T05:37:19.581Z,34.45
2017-08-19T05:38:31.869Z,34.45
2017-08-19T05:39:43.816Z,34.55
2017-08-19T05:40:56.408Z,34.45
2017-08-19T05:42:09.027Z,34.45
2017-08-19T05:43:21.662Z,34.16
2017-08-19T05:44:33.909Z,34.16
2017-08-19T05:45:45.595Z,34.08
2017-08-19T05:46:57.584Z,34.16
2017-08-19T05:48:09.861Z,34.28
2017-08-19T05:49:22.123Z,33.8
2017-08-19T05:50:34.771Z,33.8
2017-08-19T05:51:47.116Z,33.8
2017-08-19T05:52:59.750Z,33.99
2017-08-19T05:54:12.033Z,33.7
2017-08-19T05:55:24.620Z,33.61
2017-08-19T05:56:36.880Z,33.61
2017-08-19T05:57:48.882Z,33.89
2017-08-19T05:59:01.187Z,33.89
2017-08-19T06:00:13.776Z,33.8
2017-08-19T06:01:26.129Z,33.8
2017-08-19T06:02:38.441Z,34.08
2017-08-19T06:03:50.461Z,33.99
2017-08-19T06:05:02.400Z,34.08
2017-08-19T06:06:15.059Z,34.56
2017-08-19T06:07:27.709Z,34.85
2017-08-19T06:08:39.975Z,34.75
2017-08-19T06:09:52.544Z,36.1
2017-08-19T06:11:04.839Z,36.38
2017-08-19T06:12:17.129Z,36.57
2017-08-19T06:13:29.745Z,37.53
2017-08-19T06:14:41.752Z,37.43
2017-08-19T06:15:53.770Z,37.15
2017-08-19T06:17:06.424Z,36.29
2017-08-19T06:18:18.428Z,36.57
2017-08-19T06:19:30.730Z,36.29
2017-08-19T06:20:43.029Z,36.1
2017-08-19T06:21:55.639Z,36
2017-08-19T06:23:08.221Z,36.1
2017-08-19T06:24:19.939Z,37.15
2017-08-19T06:25:32.234Z,38.2
2017-08-19T06:26:44.821Z,41.77
2017-08-19T06:27:57.150Z,44.62
2017-08-19T06:29:09.694Z,44.52
2017-08-19T06:30:22.365Z,43.47
2017-08-19T06:31:34.987Z,44.9
2017-08-19T06:32:47.575Z,45.96
2017-08-19T06:33:59.913Z,46.34
2017-08-19T06:35:12.141Z,45.96
2017-08-19T06:36:24.743Z,45.19
2017-08-19T06:37:36.731Z,44.52
2017-08-19T06:38:49.246Z,43.85
2017-08-19T06:40:01.886Z,43.37
2017-08-19T06:41:14.485Z,43.77
2017-08-19T06:42:27.148Z,43.76
2017-08-19T06:43:39.718Z,46.26
2017-08-19T06:44:52.516Z,45.5
2017-08-19T06:46:05.086Z,45.79
2017-08-19T06:47:17.647Z,44.83
2017-08-19T06:48:29.925Z,44.23
2017-08-19T06:49:41.888Z,44.26
2017-08-19T06:50:54.477Z,44.04
2017-08-19T06:52:07.105Z,42.82
2017-08-19T06:53:19.613Z,43.97
2017-08-19T06:54:32.204Z,44.54
2017-08-19T06:55:44.728Z,43.97
2017-08-19T06:56:56.772Z,44.54
2017-08-19T06:58:08.798Z,42.91
2017-08-19T06:59:20.840Z,42.44
2017-08-19T07:00:33.442Z,42.44
2017-08-19T07:01:45.703Z,42.14
2017-08-19T07:02:57.698Z,42.34
2017-08-19T07:04:10.330Z,41.88
2017-08-19T07:05:22.891Z,41.69
2017-08-19T07:06:34.884Z,41.69
2017-08-19T07:07:47.480Z,41.6
2017-08-19T07:09:00.118Z,42.65
2017-08-19T07:10:12.689Z,42.74
2017-08-19T07:11:25.191Z,43.23
2017-08-19T07:12:37.231Z,43.03
2017-08-19T07:13:49.796Z,43.99
2017-08-19T07:15:02.117Z,44.78
2017-08-19T07:16:14.673Z,45.93
2017-08-19T07:17:27.323Z,45.04
2017-08-19T07:18:39.293Z,44.49
2017-08-19T07:19:51.278Z,44.49
2017-08-19T07:21:03.619Z,44.59
2017-08-19T07:22:15.927Z,45.45
2017-08-19T07:23:28.572Z,45.83
2017-08-19T07:24:40.852Z,46.5
2017-08-19T07:25:53.519Z,47.17
2017-08-19T07:27:06.135Z,48.33
2017-08-19T07:28:18.657Z,49.29
2017-08-19T07:29:30.628Z,49.38
2017-08-19T07:30:43.223Z,47.46
2017-08-19T07:31:55.827Z,46.5
2017-08-19T07:33:07.468Z,45.74
2017-08-19T07:34:20.012Z,52.76
2017-08-19T07:35:32.273Z,52.26
2017-08-19T07:36:44.852Z,55.26
2017-08-19T07:37:56.548Z,51.78
2017-08-19T07:39:09.109Z,52
2017-08-19T07:40:21.741Z,52.48
2017-08-19T07:41:34.343Z,52.38
2017-08-19T07:42:46.665Z,56.51
2017-08-19T07:43:59.004Z,54.39
2017-08-19T07:45:11.869Z,56.41
2017-08-19T07:46:24.542Z,57.08
2017-08-19T07:47:36.872Z,58.71
2017-08-19T07:48:48.911Z,56.12
2017-08-19T07:50:01.539Z,55
2017-08-19T07:51:13.829Z,56.05
2017-08-19T07:52:26.437Z,54.71
2017-08-19T07:53:38.733Z,52.4
2017-08-19T07:54:51.071Z,53.66
2017-08-19T07:56:03.628Z,55.38
2017-08-19T07:57:15.906Z,62.9
2017-08-19T07:58:28.540Z,59.7
2017-08-19T07:59:40.810Z,60.5
2017-08-19T08:00:53.362Z,62.04
2017-08-19T08:02:05.677Z,62.61
2017-08-19T08:03:17.973Z,62.42
2017-08-19T08:04:30.201Z,60.4
2017-08-19T08:05:42.464Z,64.43
2017-08-19T08:06:55.084Z,59.34
2017-08-19T08:08:07.611Z,57.9
2017-08-19T08:09:19.957Z,53.9
2017-08-19T08:10:32.565Z,55.44
2017-08-19T08:11:44.842Z,57.84
2017-08-19T08:12:57.431Z,63.22
2017-08-19T08:14:10.008Z,61.68
2017-08-19T08:15:22.325Z,59.76
2017-08-19T08:16:34.960Z,60.72
2017-08-19T08:17:46.979Z,63.12
2017-08-19T08:18:59.230Z,56.98
2017-08-19T08:20:11.803Z,60.53
2017-08-19T08:21:24.392Z,58.61
2017-08-19T08:22:37.285Z,69.46
2017-08-19T08:23:49.874Z,71.77
2017-08-19T08:25:02.137Z,63.22
2017-08-19T08:26:14.440Z,70.14
2017-08-19T08:27:27.097Z,66.1
2017-08-19T08:28:39.080Z,62.35
2017-08-19T08:29:51.385Z,69.27
2017-08-19T08:31:03.680Z,59.57
2017-08-19T08:32:15.931Z,61.2
2017-08-19T08:33:28.527Z,62.64
2017-08-19T08:34:40.484Z,78.69
2017-08-19T08:35:52.762Z,69.46
2017-08-19T08:37:04.810Z,68.98
2017-08-19T08:38:16.834Z,59.19
2017-08-19T08:39:29.440Z,65.05
2017-08-19T08:40:41.719Z,63.99
2017-08-19T08:41:54.040Z,60.72
2017-08-19T08:43:06.302Z,58.03
2017-08-19T08:44:18.300Z,65.72
2017-08-19T08:45:30.626Z,68.89
2017-08-19T08:46:43.253Z,64.95
2017-08-19T08:47:55.268Z,68.89
2017-08-19T08:49:07.264Z,66.39
2017-08-19T08:50:19.871Z,71.19
2017-08-19T08:51:32.153Z,66.2
2017-08-19T08:52:44.464Z,78.98
2017-08-19T08:53:56.739Z,75.52
2017-08-19T08:55:09.035Z,81.76
2017-08-19T08:56:21.636Z,82.68
2017-08-19T08:57:34.183Z,75.2
2017-08-19T08:58:46.454Z,75.48
2017-08-19T08:59:58.699Z,72.6
2017-08-19T09:01:10.671Z,74.33
2017-08-19T09:02:22.666Z,79.32
2017-08-19T09:03:34.353Z,71.64
2017-08-19T09:04:46.644Z,70.2
2017-08-19T09:05:59.232Z,69.24
2017-08-19T09:07:11.800Z,68.95
2017-08-19T09:08:24.370Z,82.97
2017-08-19T09:09:36.356Z,74.62
2017-08-19T09:10:48.641Z,70.68
2017-08-19T09:12:01.214Z,65.69
2017-08-19T09:13:13.513Z,72.16
2017-08-19T09:14:25.796Z,80.71
2017-08-19T09:15:37.795Z,66.1
2017-08-19T09:16:49.718Z,65.72
2017-08-19T09:18:02.365Z,68.02
2017-08-19T09:19:14.641Z,66.58
2017-08-19T09:20:27.275Z,72.54
2017-08-19T09:21:39.289Z,69.37
2017-08-19T09:22:50.923Z,77.06
2017-08-19T09:24:03.563Z,76.96
2017-08-19T09:25:15.833Z,76.96
2017-08-19T09:26:28.046Z,82.63
2017-08-19T09:27:40.513Z,76.67
2017-08-19T09:28:52.862Z,80.8
2017-08-19T09:30:04.794Z,78.88
2017-08-19T09:31:16.797Z,83.59
2017-08-19T09:32:29.070Z,78.69
2017-08-19T09:33:41.049Z,80.32
2017-08-19T09:34:53.325Z,78.4
2017-08-19T09:36:05.609Z,78.02
2017-08-19T09:37:18.238Z,75.9
2017-08-19T09:38:30.578Z,77.34
2017-08-19T09:39:43.192Z,73.11
2017-08-19T09:40:55.534Z,75.32
2017-08-19T09:42:08.149Z,80.99
2017-08-19T09:43:20.772Z,80.32
2017-08-19T09:44:33.402Z,89.93
2017-08-19T09:45:45.391Z,79.84
2017-08-19T09:46:57.997Z,78.4
2017-08-19T09:48:09.919Z,80.51
2017-08-19T09:49:22.205Z,82.48
2017-08-19T09:50:34.553Z,84.59
2017-08-19T09:51:46.862Z,83.44
2017-08-19T09:52:59.176Z,83.73
2017-08-19T09:54:11.479Z,89.11
2017-08-19T09:55:23.783Z,87.24
2017-08-19T09:56:36.383Z,89.98
2017-08-19T09:57:48.995Z,88.3
2017-08-19T09:59:01.290Z,84.01
2017-08-19T10:00:14.130Z,89.88
2017-08-19T10:01:26.389Z,94.21
2017-08-19T10:02:38.680Z,87.29
2017-08-19T10:03:50.987Z,80.75
2017-08-19T10:05:03.523Z,87.81
2017-08-19T10:06:15.856Z,89.25
2017-08-19T10:07:28.398Z,93.19
2017-08-19T10:08:40.389Z,97.62
2017-08-19T10:09:52.967Z,93.87
2017-08-19T10:11:05.243Z,93.68
2017-08-19T10:12:17.575Z,98.87
2017-08-19T10:13:30.185Z,94.25
2017-08-19T10:14:42.208Z,93.91
2017-08-19T10:15:54.780Z,99.99
2017-08-19T10:17:07.382Z,99.54
2017-08-19T10:18:19.641Z,93
2017-08-19T10:19:32.266Z,97.67
2017-08-19T10:20:44.557Z,98.34
2017-08-19T10:21:57.057Z,99.99
2017-08-19T10:23:09.577Z,93.72
2017-08-19T10:24:21.595Z,94.4
2017-08-19T10:25:33.927Z,92.42
2017-08-19T10:26:46.593Z,98.39
2017-08-19T10:27:59.204Z,93
2017-08-19T10:29:11.827Z,88.23
2017-08-19T10:30:24.091Z,90.54
2017-08-19T10:31:36.446Z,95.84
2017-08-19T10:32:48.737Z,95.69
2017-08-19T10:34:01.361Z,99.99
2017-08-19T10:35:13.659Z,95.64
2017-08-19T10:36:26.332Z,96.8
2017-08-19T10:37:38.674Z,95.5
2017-08-19T10:38:50.916Z,98.58
2017-08-19T10:40:03.239Z,95.54
2017-08-19T10:41:15.535Z,98.39
2017-08-19T10:42:28.096Z,99.99
2017-08-19T10:43:40.279Z,98.44
2017-08-19T10:44:52.576Z,99.99
2017-08-19T10:46:05.177Z,99.31
2017-08-19T10:47:17.539Z,96.99
2017-08-19T10:48:30.212Z,98.49
2017-08-19T10:49:42.528Z,99.46
2017-08-19T10:50:54.836Z,98
2017-08-19T10:52:07.423Z,99.99
2017-08-19T10:53:20.040Z,97.96
2017-08-19T10:54:32.326Z,98.93
2017-08-19T10:55:44.334Z,96.17
2017-08-19T10:56:56.356Z,99.55
2017-08-19T10:58:08.976Z,97.57
2017-08-19T10:59:21.592Z,97.67
2017-08-19T11:00:34.164Z,99.99
2017-08-19T11:01:46.412Z,99.21
2017-08-19T11:02:58.698Z,99.74
2017-08-19T11:04:10.616Z,97.81
2017-08-19T11:05:23.496Z,98
2017-08-19T11:06:36.154Z,98
2017-08-19T11:07:48.146Z,97.96
2017-08-19T11:09:00.751Z,98.73
2017-08-19T11:10:13.357Z,99.99
2017-08-19T11:11:25.686Z,99.46
2017-08-19T11:12:38.335Z,97.86
2017-08-19T11:13:50.350Z,98.15
2017-08-19T11:15:02.686Z,94.86
2017-08-19T11:16:15.013Z,97.42
2017-08-19T11:17:27.618Z,97.52
2017-08-19T11:18:40.216Z,96.26
2017-08-19T11:19:52.429Z,98.39
2017-08-19T11:21:04.740Z,99.84
2017-08-19T11:22:17.363Z,97.52
2017-08-19T11:23:29.681Z,97.42
2017-08-19T11:24:42.278Z,99.84
2017-08-19T11:25:54.877Z,97.81
2017-08-19T11:27:07.183Z,95.83
2017-08-19T11:28:19.791Z,97.18
2017-08-19T11:29:32.078Z,96.8
2017-08-19T11:30:44.665Z,97.52
2017-08-19T11:31:56.651Z,95.15
2017-08-19T11:33:08.982Z,95.01
2017-08-19T11:34:21.623Z,94.72
2017-08-19T11:35:34.224Z,96.31
2017-08-19T11:36:46.526Z,98.35
2017-08-19T11:37:58.815Z,98.44
2017-08-19T11:39:11.392Z,96.99
2017-08-19T11:40:23.738Z,97.77
2017-08-19T11:41:35.994Z,95.3
2017-08-19T11:42:48.605Z,97.14
2017-08-19T11:44:01.185Z,96.84
2017-08-19T11:45:13.814Z,95.59
2017-08-19T11:46:25.466Z,94.43
2017-08-19T11:47:38.062Z,95.4
2017-08-19T11:48:50.316Z,94.53
2017-08-19T11:50:02.323Z,95.1
2017-08-19T11:51:14.636Z,95.4
2017-08-19T11:52:27.257Z,95.1
2017-08-19T11:53:39.533Z,95.78
2017-08-19T11:54:52.173Z,95.3
2017-08-19T11:56:04.817Z,92.4
2017-08-19T11:57:17.437Z,93.51
2017-08-19T11:58:29.959Z,95.54
2017-08-19T11:59:42.231Z,92.45
2017-08-19T12:00:54.520Z,93.9
2017-08-19T12:02:07.141Z,95.25
2017-08-19T12:03:19.688Z,93.9
2017-08-19T12:04:32.281Z,92.65
2017-08-19T12:05:44.569Z,92.69
2017-08-19T12:06:56.557Z,93.95
2017-08-19T12:08:08.547Z,92.79
2017-08-19T12:09:21.084Z,92.55
2017-08-19T12:10:33.610Z,92.25
2017-08-19T12:11:45.924Z,87.76
2017-08-19T12:12:58.493Z,89.11
2017-08-19T12:14:11.098Z,88.92
2017-08-19T12:15:23.747Z,88.43
2017-08-19T12:16:36.087Z,89.59
2017-08-19T12:17:48.096Z,90.8
2017-08-19T12:19:00.691Z,88.04
2017-08-19T12:20:13.006Z,87.95
2017-08-19T12:21:25.597Z,85.51
2017-08-19T12:22:38.197Z,82.03
2017-08-19T12:23:50.217Z,82.8
2017-08-19T12:25:02.226Z,82.94
2017-08-19T12:26:14.841Z,83.91
2017-08-19T12:27:27.135Z,83.13
2017-08-19T12:28:39.832Z,80.42
2017-08-19T12:29:52.146Z,81.68
2017-08-19T12:31:04.464Z,82.17
2017-08-19T12:32:17.025Z,82.26
2017-08-19T12:33:29.688Z,78.48
2017-08-19T12:34:42.067Z,79.1
2017-08-19T12:35:54.355Z,81.37
2017-08-19T12:37:06.966Z,79.18
2017-08-19T12:38:19.538Z,78.89
2017-08-19T12:39:31.809Z,76.15
2017-08-19T12:40:44.405Z,74.98
2017-08-19T12:41:56.936Z,72.65
2017-08-19T12:43:09.817Z,71.68
2017-08-19T12:44:22.206Z,72.75
2017-08-19T12:45:34.163Z,74.27
2017-08-19T12:46:46.732Z,74.01
2017-08-19T12:47:58.994Z,69.64
2017-08-19T12:49:11.271Z,69.74
2017-08-19T12:50:23.546Z,69.74
2017-08-19T12:51:35.898Z,69.74
2017-08-19T12:52:48.476Z,68.67
2017-08-19T12:54:00.734Z,66.44
2017-08-19T12:55:13.363Z,67.02
2017-08-19T12:56:25.359Z,67.99
2017-08-19T12:57:37.994Z,66.86
2017-08-19T12:58:50.616Z,65.89
2017-08-19T13:00:03.249Z,64.07
2017-08-19T13:01:15.853Z,63.68
2017-08-19T13:02:27.849Z,64.85
2017-08-19T13:03:40.492Z,63
2017-08-19T13:04:53.309Z,61.05
2017-08-19T13:06:05.621Z,62.68
2017-08-19T13:07:17.357Z,63.65
2017-08-19T13:08:29.330Z,64.43
2017-08-19T13:09:41.655Z,64.69
2017-08-19T13:10:54.219Z,62.94
2017-08-19T13:12:06.765Z,63.59
2017-08-19T13:13:19.051Z,64.07
2017-08-19T13:14:31.363Z,64.72
2017-08-19T13:15:43.983Z,65.79
2017-08-19T13:16:56.266Z,67.08
2017-08-19T13:18:08.546Z,68.05
2017-08-19T13:19:21.066Z,66.3
2017-08-19T13:20:33.065Z,66.85
2017-08-19T13:21:45.681Z,68.21
2017-08-19T13:22:57.974Z,68.7
2017-08-19T13:24:10.588Z,68.18
2017-08-19T13:25:23.201Z,67.3
2017-08-19T13:26:35.821Z,69.34
2017-08-19T13:27:48.144Z,67.95
2017-08-19T13:29:00.395Z,67.76
2017-08-19T13:30:12.699Z,69.17
2017-08-19T13:31:25.330Z,68.69
2017-08-19T13:32:37.932Z,69.56
2017-08-19T13:33:50.539Z,69.33
2017-08-19T13:35:03.142Z,70.78
2017-08-19T13:36:14.852Z,69.24
2017-08-19T13:37:27.700Z,71.52
2017-08-19T13:38:40.003Z,72.74
2017-08-19T13:39:52.349Z,72.36
2017-08-19T13:41:04.915Z,71.88
2017-08-19T13:42:17.210Z,73.13
2017-08-19T13:43:29.225Z,73.28
2017-08-19T13:44:41.546Z,72.45
2017-08-19T13:45:54.140Z,72.52
2017-08-19T13:47:06.710Z,71.84
2017-08-19T13:48:19.336Z,71.45
2017-08-19T13:49:31.946Z,72.71
2017-08-19T13:50:43.923Z,72.9
2017-08-19T13:51:56.250Z,73
2017-08-19T13:53:08.243Z,72.61
2017-08-19T13:54:20.586Z,73.96
2017-08-19T13:55:32.589Z,73.38
2017-08-19T13:56:44.875Z,72.8
2017-08-19T13:57:57.160Z,72.8
2017-08-19T13:59:09.786Z,74.83
2017-08-19T14:00:22.014Z,74.25
2017-08-19T14:01:34.293Z,74.35
2017-08-19T14:02:46.517Z,73.77
2017-08-19T14:03:58.839Z,75.12
2017-08-19T14:05:11.181Z,74.54
2017-08-19T14:06:23.504Z,73.28
2017-08-19T14:07:36.120Z,74.16
2017-08-19T14:08:48.358Z,75.6
2017-08-19T14:10:00.947Z,74.25
2017-08-19T14:11:13.275Z,75.02
2017-08-19T14:12:25.845Z,75.27
2017-08-19T14:13:38.072Z,74.89
2017-08-19T14:14:50.286Z,75.76
2017-08-19T14:16:02.556Z,76.15
2017-08-19T14:17:14.796Z,74.99
2017-08-19T14:18:26.733Z,75.57
2017-08-19T14:19:39.037Z,77.21
2017-08-19T14:20:51.590Z,76.05
2017-08-19T14:22:03.552Z,75.95
2017-08-19T14:23:15.824Z,73.73
2017-08-19T14:24:27.745Z,74.31
2017-08-19T14:25:40.290Z,75.67
2017-08-19T14:26:52.567Z,74.79
2017-08-19T14:28:04.915Z,73.35
2017-08-19T14:29:17.247Z,73.63
2017-08-19T14:30:29.833Z,73.25
2017-08-19T14:31:41.816Z,75.76
2017-08-19T14:32:53.839Z,75.76
2017-08-19T14:34:06.503Z,76.05
2017-08-19T14:35:19.148Z,75.67
2017-08-19T14:36:31.410Z,74.6
2017-08-19T14:37:43.383Z,74.02
2017-08-19T14:38:55.976Z,72.96
2017-08-19T14:40:08.598Z,73.63
2017-08-19T14:41:21.210Z,74.69
2017-08-19T14:42:33.754Z,74.99
2017-08-19T14:43:46.330Z,75.18
2017-08-19T14:44:58.660Z,74.99
2017-08-19T14:46:11.293Z,75.09
2017-08-19T14:47:23.869Z,75.37
2017-08-19T14:48:36.692Z,75.67
2017-08-19T14:49:48.700Z,75.57
2017-08-19T14:51:01.005Z,75.67
2017-08-19T14:52:13.252Z,75.85
2017-08-19T14:53:25.824Z,75.76
2017-08-19T14:54:38.472Z,75.47
2017-08-19T14:55:50.752Z,75.85
2017-08-19T14:57:02.730Z,77.69
2017-08-19T14:58:15.073Z,77.69
2017-08-19T14:59:27.608Z,78.08
2017-08-19T15:00:39.875Z,78.46
2017-08-19T15:01:52.491Z,77.78
2017-08-19T15:03:04.431Z,77.88
2017-08-19T15:04:16.694Z,76.15
2017-08-19T15:05:29.320Z,76.43
2017-08-19T15:06:41.302Z,76.43
2017-08-19T15:07:53.929Z,76.43
2017-08-19T15:09:06.252Z,76.24
2017-08-19T15:10:18.572Z,76.15
2017-08-19T15:11:31.208Z,76.59
2017-08-19T15:12:43.805Z,76.4
2017-08-19T15:13:56.116Z,76.88
2017-08-19T15:15:08.417Z,76.88
2017-08-19T15:16:20.708Z,77.84
2017-08-19T15:17:33.034Z,76.88
2017-08-19T15:18:45.619Z,76.68
2017-08-19T15:19:57.927Z,77.07
2017-08-19T15:21:10.547Z,77.55
2017-08-19T15:22:22.777Z,77.65
2017-08-19T15:23:34.746Z,77.46
2017-08-19T15:24:47.326Z,76.3
2017-08-19T15:25:59.279Z,77.36
2017-08-19T15:27:11.914Z,77.42
2017-08-19T15:28:24.488Z,76.93
2017-08-19T15:29:36.452Z,77.23
2017-08-19T15:30:49.121Z,76.93
2017-08-19T15:32:01.707Z,78
2017-08-19T15:33:14.322Z,78.77
2017-08-19T15:34:26.924Z,79.06
2017-08-19T15:35:39.192Z,78.38
2017-08-19T15:36:51.576Z,78.19